Weather observations for the past three days for
Blair Municipal Airport
Metric (Imperial)
Date Time (cdt) Wind (kph) Vis. (km) Weather Sky Cond. Temperature (ºC) Relative Humidity Wind Chill (°C) Heat Index (°C) Pressure Precipitation (cm)
Air Dwpt 6 hour altimeter (cm) sea level (mb) 1 hr 3 hr 6 hr
Max. Min.
31 07:55 SW 9 16.09 Fair CLR 23.7 21.5 88% 75.97 0.0
31 07:35 SW 6 16.09 Fair CLR 23.5 21.3 88% 75.95 0.0
31 07:15 SW 11 16.09 Fair CLR 23.1 21.1 89% 75.92 0.0
31 06:55 SW 9 16.09 Fair CLR 23.4 21.1 26.3 21.2 87% 75.9 0.0
31 06:35 SW 9 16.09 Fair CLR 23.2 21 88% 75.87 0.0
31 06:15 S 6 16.09 Fair CLR 23.2 21 88% 75.82 0.0
31 05:55 SW 9 16.09 Fair CLR 23.5 21.1 86% 75.82 0.0
31 05:35 SW 7 16.09 Fair CLR 23.1 21.1 89% 75.79 0.0
31 05:15 S 6 16.09 Fair CLR 22.6 20.7 89% 75.82 0.0
31 04:55 Calm 16.09 Fair CLR 23.7 21.2 86% 75.79 0.0
31 04:35 SW 7 16.09 Fair CLR 21.7 20.6 94% 75.79 0.0
31 04:15 S 7 16.09 Fair CLR 22.2 21.1 94% 75.77 0.0
31 03:55 S 7 16.09 Fair CLR 22.9 21.5 92% 75.77 0.0
31 03:35 SW 6 16.09 Fair CLR 22.7 21.3 92% 75.74 0.0
31 03:15 Calm 16.09 Fair CLR 22 20.7 92% 75.74 0.0
31 02:55 Calm 16.09 Fair CLR 23.8 21.3 86% 75.72 0.0
31 02:35 Calm 16.09 Fair CLR 22.9 21.2 90% 75.74 0.0
31 02:15 Calm 16.09 Fair CLR 22.3 21 92% 75.72 0.0
31 01:55 S 7 16.09 Fair CLR 25.1 21.4 80% 26 75.74 0.0
31 01:35 S 6 16.09 Fair CLR 24.4 21.5 84% 25 75.74 0.0
31 01:15 Calm 16.09 Fair CLR 25.9 21.5 77% 27 75.74 0.0
31 00:55 Calm 16.09 Fair CLR 25.6 21.6 30.3 24.1 79% 27 75.74 0.0
31 00:35 Calm 16.09 Fair CLR 25.6 21.5 78% 27 75.74 0.0
31 00:15 NW 6 16.09 Fair CLR 24.4 21.7 85% 25 75.72 0.0
30 23:55 Calm 16.09 Fair CLR 26.7 21.6 74% 29 75.72 0.0
30 23:35 Calm 16.09 Fair CLR 27.5 21.6 70% 30 75.74 0.0
30 23:15 NW 6 16.09 Fair CLR 25.3 21.8 81% 26 75.72 0.0
30 22:55 Calm 16.09 Fair CLR 25.7 21.7 79% 27 75.74 0.0
30 22:35 Calm 16.09 Fair CLR 27 21.4 71% 29 75.74 0.0
30 22:15 Calm 16.09 Fair CLR 28 21.3 67% 30 75.74 0.0
30 21:55 Calm 16.09 Fair CLR 27.8 21.5 69% 30 75.74 0.0
30 21:35 SE 6 16.09 Fair CLR 28.3 21.4 66% 31 75.74 0.0
30 21:15 Calm 16.09 Fair CLR 27.7 21.6 69% 30 75.74 0.0
30 20:55 Calm 16.09 Fair CLR 27.3 22.1 73% 30 75.72 0.0
30 20:35 S 6 11.27 Fair CLR 26.5 22.6 79% 29 75.72 0.0
30 20:15 S 6 16.09 Fair CLR 26.8 22.5 77% 29 75.69 0.0
30 19:55 S 7 16.09 Fair CLR 27.9 22.3 72% 31 75.69 0.0
30 19:35 S 7 16.09 Fair CLR 28.7 22.6 70% 32 75.69 0.0
30 19:15 S 7 16.09 Fair CLR 29.4 22.6 67% 33 75.72 0.0
30 18:55 S 7 16.09 Fair CLR 30.4 22.6 32 28.1 63% 34 75.69 0.0
30 18:35 S 9 16.09 Fair CLR 30.8 22.3 61% 35 75.72 0.0
30 18:15 S 11 16.09 Fair CLR 31.2 21.9 58% 35 75.69 0.0
30 17:55 S 11 16.09 Fair CLR 30.9 21.9 59% 34 75.69 0.0
30 17:35 S 11 16.09 Fair CLR 31.5 20.9 53% 34 75.69 0.0
30 17:15 SW 15 16.09 Fair CLR 31 21.2 56% 34 75.69 0.0
30 16:55 S 15 16.09 Fair CLR 32 20.8 52% 35 75.67 0.0
30 16:35 S 15 16.09 Fair CLR 31.7 20.2 51% 34 75.67 0.0
30 16:15 S 15 16.09 Fair CLR 31.4 19.7 50% 33 75.67 0.0
30 15:55 S 24 G 31 16.09 Fair CLR 30.7 19.4 51% 32 75.72 0.0
30 15:35 S 20 16.09 Fair CLR 30.6 20 53% 33 75.69 0.0
30 15:15 S 15 16.09 Fair CLR 30 19.1 52% 31 75.69 0.0
30 14:55 S 22 G 31 16.09 Fair CLR 31.1 19.7 51% 33 75.72 0.0
30 14:35 S 26 G 37 16.09 Fair CLR 31.4 20.1 51% 34 75.74 0.0
30 14:15 S 20 G 28 16.09 Fair CLR 30.9 20 52% 33 75.72 0.0
30 13:55 S 15 16.09 Fair CLR 30.5 19.8 53% 32 75.69 0.0
30 13:35 SW 15 16.09 Fair CLR 30 19.6 54% 32 75.72 0.0
30 13:15 SW 17 16.09 Fair CLR 30.3 19.6 53% 32 75.74 0.0
30 12:55 S 19 G 24 16.09 Fair CLR 28.4 18.6 30 24.5 55% 29 75.77 0.0
30 12:35 S 20 G 30 16.09 Fair CLR 28.7 18.1 53% 30 75.77 0.0
30 12:10 S 19 G 31 16.09 Fair CLR 29.6 18.1 50% 30 75.77 0.0
30 11:55 S 19 16.09 Fair CLR 29.9 18.9 52% 31 75.74 0.0
30 11:35 S 15 G 28 16.09 Fair CLR 29.4 18.8 53% 31 75.74 0.0
30 11:15 S 20 16.09 Fair CLR 28.8 18.9 55% 30 75.77 0.0
30 10:55 S 13 G 26 16.09 Fair CLR 27.9 19 58% 29 75.74 0.0
30 10:35 S 13 16.09 Fair CLR 28 18.4 56% 29 75.77 0.0
30 10:15 S 17 16.09 Fair CLR 27.3 18.3 58% 28 75.77 0.0
30 09:55 S 11 16.09 Thunderstorm in Vicinity CLR 26.8 18.4 60% 28 75.74 0.0
30 09:35 S 15 16.09 Fair CLR 26.9 18.2 59% 28 75.74 0.0
30 09:15 S 13 16.09 Fair CLR 25.5 17.7 62% 26 75.74 0.0
30 08:55 S 15 16.09 Thunderstorm in Vicinity CLR 25 17.7 64% 26 75.74 0.0
30 08:35 S 13 16.09 Fair CLR 24.6 17.7 66% 26 75.72 0.0
30 08:15 S 15 16.09 Thunderstorm SCT075 SCT120 24.8 17.3 63% 26 75.72 0.0
30 07:55 S 13 16.09 Thunderstorm BKN120 24.7 17.3 64% 26 75.74 0.0
30 07:35 S 15 16.09 Mostly Cloudy BKN120 24.8 17.1 62% 26 75.74 0.0
30 07:15 S 15 16.09 Thunderstorm in Vicinity SCT120 24.8 17.1 62% 26 75.72 0.0
30 06:55 S 15 16.09 Fair CLR 24.5 17.1 27 24 63% 26 75.72 0.0
30 06:35 S 15 16.09 Fair CLR 24.7 17 62% 26 75.72 0.0
30 06:15 S 17 16.09 Fair CLR 24.6 17 63% 26 75.72 0.0
30 05:55 S 15 16.09 Fair CLR 24.1 17.4 66% 25 75.77 0.0
30 05:35 SW 11 16.09 Fair CLR 25.1 17.1 61% 26 75.79 0.0
30 05:15 S 15 16.09 Partly Cloudy SCT110 25 17.4 63% 26 75.77 0.0
30 04:55 SW 9 16.09 Thunderstorm in Vicinity SCT095 24.6 17.6 65% 26 75.79 0.0
30 04:35 S 15 16.09 Light Rain SCT055 BKN110 24.8 18 66% 26 75.77 0.0
30 04:15 S 17 16.09 Partly Cloudy SCT110 25.6 17.5 61% 27 75.77 0.0
30 03:55 S 15 16.09 Fair CLR 25.3 17.4 62% 26 75.74 0.0
30 03:35 S 17 16.09 Fair CLR 25.3 17.3 61% 26 75.72 0.0
30 03:15 S 19 16.09 Fair CLR 25.2 17.5 62% 26 75.72 0.0
30 02:55 S 19 16.09 Fair CLR 25.5 17.4 61% 26 75.72 0.0
30 02:35 S 20 16.09 Fair CLR 25.8 17.4 60% 27 75.72 0.0
30 02:15 S 24 16.09 Fair CLR 26 17.6 60% 27 75.72 0.0
30 01:55 S 20 G 30 16.09 Fair CLR 26.2 17.8 60% 27 75.72 0.0
30 01:35 S 19 G 30 16.09 Fair CLR 26.3 18.1 61% 27 75.74 0.0
30 01:15 S 17 G 30 16.09 Fair CLR 26.5 18.2 60% 27 75.74 0.0
30 00:55 S 22 16.09 Fair CLR 27 18.5 29.9 27 60% 28 75.74 0.0
30 00:35 S 20 G 31 16.09 Fair CLR 27.1 18.6 60% 28 75.72 0.0
30 00:15 S 19 16.09 Fair CLR 27.5 18.8 59% 29 75.72 0.0
29 23:55 S 20 G 30 16.09 Fair CLR 27.8 19 59% 29 75.72 0.0
29 23:35 S 20 G 30 16.09 Fair CLR 28 19.3 59% 29 75.72 0.0
29 23:15 S 19 16.09 Fair CLR 27.7 20 63% 29 75.74 0.0
29 22:55 S 17 16.09 Fair CLR 27.7 20.1 63% 29 75.74 0.0
29 22:35 S 17 G 26 16.09 Fair CLR 27.8 20.1 63% 29 75.72 0.0
29 22:15 S 19 16.09 Fair CLR 28 20.4 63% 30 75.72 0.0
29 21:55 S 17 16.09 Fair CLR 28 21 66% 30 75.72 0.0
29 21:35 S 15 16.09 Fair CLR 28 21.1 66% 30 75.69 0.0
29 21:15 S 15 16.09 Fair CLR 28 21.6 68% 30 75.69 0.0
29 20:55 S 17 16.09 Fair CLR 28.1 21.9 69% 31 75.67 0.0
29 20:35 S 13 16.09 Fair CLR 28.2 22.1 70% 31 75.64 0.0
29 20:15 S 13 16.09 Fair CLR 28.5 22.2 69% 31 75.64 0.0
29 19:55 S 13 16.09 Fair CLR 28.8 22.2 68% 32 75.64 0.0
29 19:35 S 13 16.09 Fair CLR 29.2 22.3 66% 32 75.64 0.0
29 19:15 S 13 16.09 Fair CLR 29.7 22.1 64% 33 75.67 0.0
29 18:35 S 15 16.09 Fair CLR 30.8 21.4 57% 34 75.69 0.0
29 18:15 S 15 16.09 Fair CLR 30.8 21.6 58% 34 75.67 0.0
29 17:55 S 17 16.09 Fair CLR 30.7 21.3 57% 34 75.69 0.0
29 17:35 S 15 G 28 16.09 Fair CLR 31.1 20.7 54% 34 75.69 0.0
29 17:15 S 20 G 30 16.09 Fair CLR 30.9 20.6 54% 33 75.69 0.0
29 16:55 S 24 16.09 Fair CLR 31.2 20.2 52% 33 75.69 0.0
29 16:35 S 19 G 30 16.09 Fair CLR 30.8 21.2 57% 34 75.72 0.0
29 16:15 S 17 16.09 Fair CLR 30.1 20.5 56% 32 75.72 0.0
29 15:55 S 22 G 33 16.09 Fair CLR 29.3 20.3 58% 31 75.72 0.0
29 15:35 S 20 G 28 16.09 Fair CLR 27.3 19.9 64% 29 75.77 0.0
29 15:15 S 11 16.09 Light Rain SCT041 SCT049 SCT070 25.5 19.8 71% 27 75.77 0.0
29 14:55 S 20 G 30 16.09 Fair CLR 27.8 18.2 56% 29 75.82 0.0
29 14:35 S 19 G 30 16.09 Thunderstorm in Vicinity CLR 28.1 18.3 55% 29 75.82 0.0
29 14:15 S 22 G 31 16.09 Fair CLR 27.7 17.8 55% 29 75.82 0.0
29 13:55 S 22 16.09 Fair CLR 28 18 55% 29 75.84 0.0
29 13:35 S 22 G 31 16.09 Fair CLR 28.5 17.8 52% 29 75.84 0.0
29 13:15 S 24 G 31 16.09 Fair CLR 28.2 17.3 52% 29 75.87 0.0
29 12:55 S 17 G 28 16.09 Fair CLR 28.2 17.3 28.3 21.2 52% 29 75.9 0.0
29 12:35 S 19 16.09 Fair CLR 27.1 16.7 53% 28 75.9 0.0
29 12:15 S 22 16.09 Fair CLR 27.9 17.2 52% 29 75.9 0.0
29 11:55 S 22 16.09 Fair CLR 27.4 16.4 51% 28 75.9 0.0
29 11:35 S 26 G 33 16.09 Fair CLR 27.4 16.4 51% 28 75.92 0.0
29 11:15 S 31 G 41 16.09 Fair CLR 26.5 15.9 52% 27 75.92 0.0
29 10:55 S 22 G 41 16.09 Fair CLR 26.1 15.7 53% 27 75.92 0.0
29 10:35 S 20 G 35 16.09 Fair CLR 24.3 15.2 57% 25 75.92 0.0
29 10:15 S 26 G 33 16.09 Fair CLR 24.4 15.4 57% 26 75.95 0.0
29 09:55 S 24 G 35 16.09 Fair CLR 23.3 15 60% 75.95 0.0
29 09:35 S 24 16.09 Fair CLR 23 14.8 60% 75.97 0.0
29 09:15 S 22 G 33 16.09 Fair CLR 22.7 14.7 61% 76 0.0
29 08:55 S 24 G 31 16.09 Fair CLR 22.3 14.7 62% 76 0.0
29 08:35 S 24 16.09 Fair CLR 21.7 14.5 64% 75.97 0.0
29 08:15 S 22 G 31 16.09 Fair CLR 21.4 14.5 65% 75.97 0.0
29 07:55 S 22 16.09 Fair CLR 21.3 14.5 65% 76 0.0
29 07:35 S 24 16.09 Fair CLR 21.2 14.2 64% 76 0.0
29 07:15 S 20 16.09 Fair CLR 21.3 14.2 64% 76.02 0.0
29 06:55 S 20 16.09 Fair CLR 21.4 14.2 23 21.3 64% 76 0.0
29 06:35 S 19 G 30 16.09 Fair CLR 21.3 14.5 65% 76 0.0
29 06:15 S 20 16.09 Partly Cloudy SCT095 21.5 14.5 65% 76.02 0.0
29 05:50 S 19 G 24 16.09 Partly Cloudy SCT095 21.5 14.7 65% 76.02 0.0
29 05:35 S 22 16.09 Fair CLR 21.5 15 67% 76.05 0.0
29 05:15 S 22 G 31 16.09 Fair CLR 21.6 15 66% 76.07 0.0
29 04:55 S 22 G 30 16.09 Fair CLR 21.7 15.1 66% 76.07 0.0
29 04:35 S 24 G 37 16.09 Fair CLR 21.8 15.1 66% 76.07 0.0
29 04:15 S 30 G 35 16.09 Fair CLR 22.1 15.1 65% 76.07 0.0
29 03:55 S 22 G 35 16.09 Fair CLR 22.5 15.1 63% 76.1 0.0
29 03:35 S 24 G 33 16.09 Fair CLR 22.5 15.5 65% 76.1 0.0
29 03:15 S 19 G 33 16.09 Fair CLR 22.5 15.6 65% 76.12 0.0
29 02:55 S 20 G 30 16.09 Fair CLR 22.4 15.6 66% 76.15 0.0
29 02:35 S 22 G 31 16.09 Fair CLR 22.5 15.7 66% 76.15 0.0
29 02:15 S 20 G 30 16.09 Fair CLR 22.7 15.8 65% 76.15 0.0
29 01:55 S 20 G 30 16.09 Fair CLR 22.9 15.9 65% 76.15 0.0
29 01:35 S 22 G 28 16.09 Fair CLR 23 16 65% 76.15 0.0
29 01:15 S 20 G 26 16.09 Fair CLR 23 16.2 66% 76.15 0.0
29 00:55 S 15 G 28 16.09 Fair CLR 22.9 16.5 27.4 22.9 67% 76.17 0.0
29 00:35 S 17 G 26 16.09 Fair CLR 23.2 16.5 66% 76.2 0.0
29 00:15 SE 20 G 28 16.09 Fair CLR 23.4 16.5 65% 76.2 0.0
28 23:55 S 19 G 28 16.09 Fair CLR 23.1 17 69% 76.23 0.0
28 23:35 S 17 16.09 Fair CLR 23.5 17.1 67% 76.23 0.0
28 23:15 S 19 G 30 16.09 Fair CLR 23.6 17.1 67% 76.23 0.0
28 22:55 S 20 G 28 16.09 Fair CLR 23.8 17.1 66% 76.23 0.0
28 22:35 S 17 16.09 Fair CLR 23.8 17.1 66% 76.23 0.0
28 22:15 S 17 16.09 Fair CLR 24 17.2 66% 25 76.23 0.0
28 21:55 SE 15 16.09 Fair CLR 24.1 17.1 65% 25 76.23 0.0
28 21:35 SE 13 16.09 Fair CLR 24 17.4 67% 25 76.23 0.0
28 21:15 SE 13 16.09 Fair CLR 24.1 17.8 68% 25 76.23 0.0
28 20:55 SE 9 16.09 Fair CLR 24.2 18.2 69% 25 76.2 0.0
28 20:35 SE 11 16.09 Fair CLR 24.5 18.4 69% 25 76.2 0.0
28 20:15 S 15 16.09 Fair CLR 25.1 18.3 66% 26 76.2 0.0
28 19:55 S 13 16.09 Fair CLR 25.6 18.5 65% 27 76.2 0.0
28 19:35 S 11 16.09 Fair CLR 26.5 18.4 61% 28 76.2 0.0
28 19:15 S 15 16.09 Fair CLR 27 18.6 60% 28 76.23 0.0
28 18:55 S 13 G 26 16.09 Fair CLR 27.4 18.6 29 27.2 59% 28 76.25 0.0
28 18:35 S 17 16.09 Fair CLR 27.8 18.7 58% 29 76.25 0.0
28 18:15 S 15 G 31 16.09 Fair CLR 28.1 18.7 57% 29 76.28 0.0
28 17:55 S 17 G 28 16.09 Fair CLR 28.5 18.7 55% 30 76.28 0.0
28 17:35 S 17 G 26 16.09 Fair CLR 28.5 18.5 55% 30 76.28 0.0
28 17:15 S 19 16.09 Fair CLR 28.6 18.8 55% 30 76.3 0.0
28 16:55 S 22 16.09 Fair CLR 28.7 18.4 54% 30 76.3 0.0
28 16:35 S 19 G 26 16.09 Fair CLR 28.8 18.4 53% 30 76.33 0.0
28 16:15 S 13 16.09 Fair CLR 28.7 18 52% 30 76.33 0.0
28 15:55 S 20 G 26 16.09 Fair CLR 28.8 18.4 53% 30 76.35 0.0
28 15:35 S 17 G 28 16.09 Fair CLR 28.8 18.1 52% 30 76.38 0.0
28 15:15 S 17 G 26 16.09 Fair CLR 28.7 18.2 53% 30 76.4 0.0
28 14:55 S 20 G 30 16.09 Fair CLR 28.5 17.8 52% 29 76.4 0.0
28 14:35 S 17 16.09 Fair CLR 28.6 17.5 51% 29 76.4 0.0
28 14:15 S 20 G 28 16.09 Fair CLR 28.2 17.5 52% 29 76.43 0.0
28 13:55 S 17 16.09 Fair CLR 28.1 17.9 54% 29 76.45 0.0
28 13:35 S 15 G 26 16.09 Fair CLR 27.9 18.1 55% 29 76.45 0.0
28 13:15 S 19 G 30 16.09 Fair CLR 27.4 17.6 55% 28 76.48 0.0
28 12:55 S 20 16.09 Fair CLR 27.2 17.1 27.3 18.3 54% 28 76.5 0.0
28 12:35 S 19 16.09 Fair CLR 27 17.3 55% 28 76.56 0.0
28 12:15 S 15 16.09 Fair CLR 26.6 17.3 57% 27 76.56 0.0
28 11:55 S 15 16.09 Fair CLR 26.4 17.1 57% 27 76.58 0.0
28 11:35 S 17 16.09 Fair CLR 26.1 17.2 58% 27 76.58 0.0
28 11:15 S 24 16.09 Fair CLR 25.7 16.6 57% 27 76.58 0.0
28 10:55 S 20 16.09 Fair CLR 25.3 17 60% 26 76.58 0.0
28 10:35 S 13 16.09 Fair CLR 24.7 16.9 62% 26 76.58 0.0
28 10:15 S 17 16.09 Fair CLR 24.2 16.6 63% 25 76.58 0.0
28 09:55 S 19 16.09 Fair CLR 24.1 17 65% 25 76.58 0.0
28 09:35 S 11 16.09 Fair CLR 23.4 17 67% 76.58 0.0
28 09:15 SE 9 16.09 Fair CLR 22.6 17 71% 76.58 0.0
28 08:55 SE 7 16.09 Fair CLR 21.5 17.3 77% 76.58 0.0
28 08:35 SE 6 16.09 Fair CLR 20.7 16.9 79% 76.58 0.0
28 08:15 Calm 16.09 Fair CLR 20 16.8 82% 76.58 0.0
Date Time (cdt) Wind (kph) Vis. (km) Weather Sky Cond. Air Dwpt Max. Min. Relative Humidity Wind Chill (°C) Heat Index (°C) altimeter (cm) sea level (mb) 1 hr 3 hr 6 hr
6 hour
Temperature (ºC) Pressure Precipitation (cm)